createdAt,value
2019-04-06T00:02:16.621Z,19.80
2019-04-06T00:04:45.186Z,19.37
2019-04-06T00:07:13.773Z,18.75
2019-04-06T00:09:42.334Z,19.67
2019-04-06T00:12:10.918Z,19.62
2019-04-06T00:14:39.466Z,21.15
2019-04-06T00:17:08.393Z,21.75
2019-04-06T00:19:36.944Z,21.95
2019-04-06T00:22:05.567Z,23.73
2019-04-06T00:24:34.147Z,22.75
2019-04-06T00:27:02.764Z,23.32
2019-04-06T00:29:31.338Z,22.65
2019-04-06T00:32:01.563Z,23.45
2019-04-06T00:34:30.127Z,23.20
2019-04-06T00:36:58.773Z,21.30
2019-04-06T00:39:27.256Z,22.93
2019-04-06T00:41:55.828Z,22.48
2019-04-06T00:44:24.312Z,20.80
2019-04-06T00:46:52.894Z,23.07
2019-04-06T00:49:21.372Z,22.82
2019-04-06T00:51:50.135Z,23.10
2019-04-06T00:54:18.713Z,21.85
2019-04-06T00:56:47.321Z,21.02
2019-04-06T00:59:15.836Z,21.93
2019-04-06T01:01:44.418Z,21.40
2019-04-06T01:04:12.972Z,22.32
2019-04-06T01:06:41.573Z,21.25
2019-04-06T01:09:10.126Z,21.77
2019-04-06T01:11:38.894Z,22.07
2019-04-06T01:14:07.469Z,21.37
2019-04-06T01:16:36.112Z,22.25
2019-04-06T01:19:04.766Z,23.38
2019-04-06T01:21:33.329Z,22.40
2019-04-06T01:24:01.902Z,23.80
2019-04-06T01:26:30.468Z,24.65
2019-04-06T01:28:58.973Z,29.80
2019-04-06T01:31:27.525Z,25.68
2019-04-06T01:33:56.102Z,25.17
2019-04-06T01:36:24.744Z,24.65
2019-04-06T01:38:53.323Z,25.77
2019-04-06T01:41:21.877Z,24.18
2019-04-06T01:43:50.472Z,24.80
2019-04-06T01:46:19.025Z,22.58
2019-04-06T01:48:47.596Z,22.00
2019-04-06T01:51:16.076Z,21.80
2019-04-06T01:53:44.663Z,21.27
2019-04-06T01:56:18.361Z,20.32
2019-04-06T01:58:43.440Z,20.85
2019-04-06T02:01:13.653Z,19.27
2019-04-06T02:03:42.153Z,20.72
2019-04-06T02:06:10.711Z,21.48
2019-04-06T02:08:39.289Z,21.80
2019-04-06T02:11:07.860Z,21.87
2019-04-06T02:13:36.436Z,23.90
2019-04-06T02:16:04.932Z,23.05
2019-04-06T02:18:33.498Z,23.22
2019-04-06T02:21:02.626Z,24.40
2019-04-06T02:23:31.212Z,23.55
2019-04-06T02:25:59.752Z,26.05
2019-04-06T02:28:28.262Z,25.17
2019-04-06T02:31:07.774Z,24.45
2019-04-06T02:33:43.699Z,24.45
2019-04-06T02:36:19.701Z,24.27
2019-04-06T02:38:50.002Z,24.18
2019-04-06T02:41:20.163Z,25.32
2019-04-06T02:43:48.745Z,27.37
2019-04-06T02:46:17.300Z,25.50
2019-04-06T02:48:45.890Z,24.25
2019-04-06T02:51:14.425Z,26.60
2019-04-06T02:53:43.128Z,25.62
2019-04-06T02:56:11.657Z,24.43
2019-04-06T02:58:40.322Z,23.80
2019-04-06T03:01:08.879Z,26.50
2019-04-06T03:03:37.665Z,26.57
2019-04-06T03:06:06.257Z,28.27
2019-04-06T03:08:34.745Z,27.93
2019-04-06T03:11:03.343Z,28.57
2019-04-06T03:13:31.884Z,27.73
2019-04-06T03:16:00.467Z,28.73
2019-04-06T03:18:29.029Z,27.52
2019-04-06T03:20:57.606Z,29.70
2019-04-06T03:23:26.150Z,30.08
2019-04-06T03:25:54.737Z,29.72
2019-04-06T03:28:23.314Z,22.45
2019-04-06T03:30:51.901Z,21.75
2019-04-06T03:33:20.519Z,24.43
2019-04-06T03:35:50.541Z,21.87
2019-04-06T03:38:19.553Z,24.23
2019-04-06T03:40:48.115Z,27.17
2019-04-06T03:43:16.683Z,27.32
2019-04-06T03:45:45.269Z,27.00
2019-04-06T03:48:13.826Z,28.55
2019-04-06T03:50:42.413Z,33.92
2019-04-06T03:53:10.978Z,30.77
2019-04-06T03:55:39.632Z,32.98
2019-04-06T03:58:08.203Z,34.60
2019-04-06T04:00:36.785Z,32.90
2019-04-06T04:03:05.410Z,35.00
2019-04-06T04:05:34.013Z,33.70
2019-04-06T04:08:02.565Z,32.88
2019-04-06T04:10:36.350Z,32.63
2019-04-06T04:13:05.627Z,33.28
2019-04-06T04:15:34.586Z,34.85
2019-04-06T04:18:03.207Z,33.42
2019-04-06T04:20:31.824Z,33.80
2019-04-06T04:23:00.383Z,32.40
2019-04-06T04:25:28.964Z,31.52
2019-04-06T04:27:57.539Z,31.75
2019-04-06T04:30:32.942Z,34.78
2019-04-06T04:32:56.463Z,36.20
2019-04-06T04:35:25.085Z,32.78
2019-04-06T04:37:53.630Z,34.83
2019-04-06T04:40:22.214Z,33.40
2019-04-06T04:42:50.703Z,34.00
2019-04-06T04:45:19.294Z,32.98
2019-04-06T04:47:50.146Z,31.33
2019-04-06T04:50:18.106Z,34.10
2019-04-06T04:52:46.664Z,34.67
2019-04-06T04:55:15.322Z,34.20
2019-04-06T04:57:45.387Z,34.23
2019-04-06T05:00:14.651Z,34.27
2019-04-06T05:02:43.205Z,33.42
2019-04-06T05:05:12.193Z,33.98
2019-04-06T05:07:40.770Z,35.80
2019-04-06T05:10:09.570Z,37.00
2019-04-06T05:12:38.148Z,40.55
2019-04-06T05:15:12.601Z,39.53
2019-04-06T05:17:41.126Z,38.40
2019-04-06T05:20:10.179Z,37.98
2019-04-06T05:22:38.710Z,43.52
2019-04-06T05:25:08.308Z,39.50
2019-04-06T05:27:37.028Z,43.78
2019-04-06T05:30:08.301Z,52.03
2019-04-06T05:32:37.124Z,52.70
2019-04-06T05:35:06.358Z,52.73
2019-04-06T05:37:34.929Z,44.58
2019-04-06T05:40:04.288Z,37.42
2019-04-06T05:42:32.806Z,34.65
2019-04-06T05:45:01.531Z,33.73
2019-04-06T05:47:30.050Z,31.10
2019-04-06T05:49:58.611Z,32.48
2019-04-06T05:52:27.138Z,32.93
2019-04-06T05:54:55.689Z,33.80
2019-04-06T05:57:24.284Z,32.88
2019-04-06T05:59:52.827Z,34.95
2019-04-06T06:02:21.420Z,33.45
2019-04-06T06:04:49.982Z,36.48
2019-04-06T06:07:18.562Z,33.73
2019-04-06T06:09:47.139Z,34.88
2019-04-06T06:12:15.907Z,33.05
2019-04-06T06:14:44.441Z,34.73
2019-04-06T06:17:14.334Z,36.10
2019-04-06T06:19:43.096Z,34.73
2019-04-06T06:22:11.681Z,34.25
2019-04-06T06:24:40.249Z,34.78
2019-04-06T06:27:08.837Z,35.00
2019-04-06T06:29:37.407Z,34.18
2019-04-06T06:32:06.073Z,33.40
2019-04-06T06:34:34.613Z,31.52
2019-04-06T06:37:03.185Z,34.03
2019-04-06T06:39:31.738Z,35.45
2019-04-06T06:42:00.381Z,34.23
2019-04-06T06:44:29.155Z,34.00
2019-04-06T06:46:57.865Z,35.90
2019-04-06T06:49:26.361Z,37.28
2019-04-06T06:51:54.975Z,36.38
2019-04-06T06:54:23.478Z,34.00
2019-04-06T06:56:52.129Z,34.18
2019-04-06T06:59:20.685Z,32.35
2019-04-06T07:01:49.194Z,32.53
2019-04-06T07:04:17.745Z,31.68
2019-04-06T07:06:46.316Z,31.65
2019-04-06T07:09:14.790Z,32.33
2019-04-06T07:11:43.341Z,31.07
2019-04-06T07:14:11.943Z,31.50
2019-04-06T07:16:40.486Z,31.62
2019-04-06T07:19:09.073Z,29.98
2019-04-06T07:21:37.542Z,32.83
2019-04-06T07:24:06.177Z,32.98
2019-04-06T07:26:34.722Z,35.28
2019-04-06T07:29:03.331Z,34.55
2019-04-06T07:31:31.849Z,34.08
2019-04-06T07:34:00.440Z,32.85
2019-04-06T07:36:28.985Z,33.65
2019-04-06T07:38:57.482Z,33.95
2019-04-06T07:41:26.025Z,31.35
2019-04-06T07:43:54.703Z,32.10
2019-04-06T07:46:23.257Z,31.57
2019-04-06T07:48:51.762Z,31.25
2019-04-06T07:51:20.336Z,32.73
2019-04-06T07:53:48.883Z,30.48
2019-04-06T07:56:17.441Z,28.73
2019-04-06T07:58:49.387Z,30.55
2019-04-06T08:01:16.241Z,30.45
2019-04-06T08:03:44.801Z,29.27
2019-04-06T08:06:13.358Z,30.90
2019-04-06T08:08:42.075Z,30.65
2019-04-06T08:11:10.644Z,30.27
2019-04-06T08:13:39.227Z,29.80
2019-04-06T08:16:07.851Z,29.85
2019-04-06T08:18:41.099Z,31.95
2019-04-06T08:21:09.958Z,30.88
2019-04-06T08:23:38.758Z,30.57
2019-04-06T08:26:07.427Z,30.43
2019-04-06T08:28:35.994Z,32.20
2019-04-06T08:31:04.616Z,31.27
2019-04-06T08:33:33.201Z,29.80
2019-04-06T08:36:01.757Z,31.05
2019-04-06T08:38:30.411Z,31.27
2019-04-06T08:40:58.940Z,30.50
2019-04-06T08:43:27.593Z,31.07
2019-04-06T08:45:56.140Z,30.02
2019-04-06T08:48:24.695Z,31.15
2019-04-06T08:50:53.321Z,31.48
2019-04-06T08:53:21.911Z,30.72
2019-04-06T08:55:50.455Z,31.45
2019-04-06T08:58:19.113Z,31.33
2019-04-06T09:00:47.594Z,32.95
2019-04-06T09:03:16.200Z,30.27
2019-04-06T09:05:44.786Z,34.83
2019-04-06T09:08:13.365Z,31.20
2019-04-06T09:10:42.082Z,31.93
2019-04-06T09:13:10.737Z,31.87
2019-04-06T09:15:39.486Z,32.98
2019-04-06T09:18:08.075Z,31.90
2019-04-06T09:20:36.671Z,32.63
2019-04-06T09:23:05.303Z,29.98
2019-04-06T09:25:33.834Z,30.30
2019-04-06T09:28:02.460Z,29.82
2019-04-06T09:30:31.031Z,28.62
2019-04-06T09:32:59.629Z,28.65
2019-04-06T09:35:28.207Z,27.85
2019-04-06T09:37:59.329Z,27.80
2019-04-06T09:40:28.361Z,27.40
2019-04-06T09:42:57.094Z,29.00
2019-04-06T09:45:41.416Z,27.70
2019-04-06T09:48:27.233Z,25.50
2019-04-06T09:51:15.257Z,27.00
2019-04-06T09:53:45.988Z,26.10
2019-04-06T09:56:22.494Z,26.07
2019-04-06T09:59:04.656Z,25.75
2019-04-06T10:01:38.862Z,23.77
2019-04-06T10:04:18.690Z,22.93
2019-04-06T10:07:00.418Z,24.23
2019-04-06T10:09:45.334Z,22.60
2019-04-06T10:12:15.625Z,20.25
2019-04-06T10:15:09.426Z,21.42
2019-04-06T10:17:57.345Z,21.45
2019-04-06T10:20:39.748Z,22.48
2019-04-06T10:23:26.193Z,23.70
2019-04-06T10:25:59.479Z,23.80
2019-04-06T10:28:32.303Z,21.87
2019-04-06T10:31:05.357Z,21.45
2019-04-06T10:33:51.275Z,21.85
2019-04-06T10:36:24.571Z,23.90
2019-04-06T10:39:09.433Z,22.95
2019-04-06T10:41:42.448Z,21.60
2019-04-06T10:44:15.381Z,20.48
2019-04-06T10:49:35.571Z,22.55
2019-04-06T10:52:09.531Z,23.60
2019-04-06T10:54:55.833Z,24.10
2019-04-06T10:57:42.379Z,23.65
2019-04-06T11:00:29.172Z,22.70
2019-04-06T11:03:05.374Z,22.00
2019-04-06T11:05:41.647Z,23.55
2019-04-06T11:08:17.637Z,21.27
2019-04-06T11:11:01.192Z,21.50
2019-04-06T11:13:43.428Z,21.57
2019-04-06T11:16:13.807Z,23.27
2019-04-06T11:18:49.567Z,23.65
2019-04-06T11:21:20.200Z,21.33
2019-04-06T11:24:06.504Z,22.25
2019-04-06T11:26:36.737Z,18.30
2019-04-06T11:29:09.964Z,18.45
2019-04-06T11:31:42.633Z,14.87
2019-04-06T11:34:28.755Z,16.15
2019-04-06T11:37:04.833Z,15.28
2019-04-06T11:39:51.287Z,15.48
2019-04-06T11:42:37.475Z,13.90
2019-04-06T11:45:11.480Z,15.03
2019-04-06T11:47:53.567Z,14.43
2019-04-06T11:50:26.519Z,14.87
2019-04-06T11:55:29.110Z,14.20
2019-04-06T11:58:08.178Z,16.48
2019-04-06T12:00:44.425Z,15.50
2019-04-06T12:03:23.482Z,14.58
2019-04-06T12:05:53.631Z,16.32
2019-04-06T12:08:26.724Z,15.32
2019-04-06T12:11:14.935Z,15.75
2019-04-06T12:14:00.814Z,15.25
2019-04-06T12:16:33.700Z,14.90
2019-04-06T12:21:51.502Z,13.58
2019-04-06T12:24:33.735Z,13.88
2019-04-06T12:27:13.083Z,14.30
2019-04-06T12:29:43.299Z,13.05
2019-04-06T12:32:25.631Z,14.63
2019-04-06T12:34:58.710Z,12.97
2019-04-06T12:37:28.973Z,13.00
2019-04-06T12:39:59.198Z,12.75
2019-04-06T12:42:45.711Z,13.50
2019-04-06T12:45:18.684Z,13.10
2019-04-06T12:48:04.946Z,13.43
2019-04-06T12:50:47.190Z,12.78
2019-04-06T12:53:26.069Z,11.95
2019-04-06T12:56:02.262Z,11.55
2019-04-06T12:58:38.480Z,11.73
2019-04-06T13:01:26.515Z,12.25
2019-04-06T13:04:11.741Z,11.53
2019-04-06T13:06:57.989Z,12.28
2019-04-06T13:09:40.033Z,12.30
2019-04-06T13:12:10.251Z,12.78
2019-04-06T13:14:55.675Z,11.35
2019-04-06T13:17:31.419Z,11.88
2019-04-06T13:20:10.503Z,11.85
2019-04-06T13:22:43.136Z,12.05
2019-04-06T13:25:29.584Z,11.65
2019-04-06T13:28:02.366Z,11.35
2019-04-06T13:30:47.458Z,11.60
2019-04-06T13:33:20.462Z,11.40
2019-04-06T13:35:50.686Z,11.80
2019-04-06T13:38:36.674Z,11.90
2019-04-06T13:41:16.204Z,12.53
2019-04-06T13:43:49.072Z,12.68
2019-04-06T13:49:09.914Z,11.03
2019-04-06T13:51:40.402Z,11.45
2019-04-06T13:54:10.651Z,11.93
2019-04-06T13:56:49.495Z,12.20
2019-04-06T13:59:19.714Z,11.20
2019-04-06T14:01:49.957Z,11.30
2019-04-06T14:04:39.328Z,10.53
2019-04-06T14:07:18.563Z,11.35
2019-04-06T14:09:54.510Z,11.93
2019-04-06T14:12:40.474Z,11.73
2019-04-06T14:15:28.428Z,12.50
2019-04-06T14:18:10.550Z,11.88
2019-04-06T14:20:56.985Z,11.35
2019-04-06T14:23:27.463Z,12.18
2019-04-06T14:25:57.634Z,12.40
2019-04-06T14:28:43.948Z,11.97
2019-04-06T14:31:29.607Z,11.65
2019-04-06T14:34:14.102Z,11.97
2019-04-06T14:36:50.610Z,12.03
2019-04-06T14:39:20.882Z,11.40
2019-04-06T14:41:57.037Z,11.53
2019-04-06T14:44:32.973Z,12.10
2019-04-06T14:47:11.893Z,12.47
2019-04-06T14:49:58.094Z,12.37
2019-04-06T14:52:44.830Z,12.07
2019-04-06T14:55:17.979Z,12.55
2019-04-06T14:57:48.179Z,12.40
2019-04-06T15:00:24.541Z,11.53
2019-04-06T15:03:00.399Z,11.63
2019-04-06T15:05:36.582Z,11.70
2019-04-06T15:08:07.067Z,11.88
2019-04-06T15:10:37.434Z,11.70
2019-04-06T15:13:10.253Z,12.28
2019-04-06T15:18:31.857Z,11.85
2019-04-06T15:21:11.198Z,13.93
2019-04-06T15:23:46.962Z,12.53
2019-04-06T15:26:17.208Z,13.08
2019-04-06T15:29:02.482Z,12.43
2019-04-06T15:31:51.075Z,13.18
2019-04-06T15:34:32.719Z,10.95
2019-04-06T15:37:17.997Z,10.93
2019-04-06T15:40:06.185Z,10.28
2019-04-06T15:42:48.022Z,10.35
2019-04-06T15:45:34.061Z,10.98
2019-04-06T15:48:19.081Z,11.15
2019-04-06T15:50:49.239Z,11.70
2019-04-06T15:53:31.904Z,10.88
2019-04-06T15:56:02.090Z,11.78
2019-04-06T15:58:32.241Z,10.98
2019-04-06T16:01:20.523Z,11.73
2019-04-06T16:04:06.644Z,10.25
2019-04-06T16:06:37.264Z,9.68
2019-04-06T16:09:10.873Z,10.13
2019-04-06T16:11:44.143Z,11.33
2019-04-06T16:14:28.853Z,11.03
2019-04-06T16:16:59.082Z,10.82
2019-04-06T16:19:45.193Z,11.60
2019-04-06T16:22:30.478Z,11.83
2019-04-06T16:25:00.613Z,11.50
2019-04-06T16:27:30.829Z,11.22
2019-04-06T16:30:17.802Z,10.28
2019-04-06T16:32:54.299Z,10.98
2019-04-06T16:35:30.543Z,12.25
2019-04-06T16:38:09.689Z,10.90
2019-04-06T16:40:39.906Z,10.58
2019-04-06T16:43:19.248Z,11.57
2019-04-06T16:46:01.569Z,10.38
2019-04-06T16:48:50.279Z,10.70
2019-04-06T16:51:26.293Z,11.33
2019-04-06T16:54:02.420Z,12.75
2019-04-06T16:56:39.085Z,11.43
2019-04-06T16:59:15.448Z,11.55
2019-04-06T17:01:45.636Z,11.12
2019-04-06T17:04:27.966Z,11.22
2019-04-06T17:06:58.203Z,10.90
2019-04-06T17:09:28.738Z,11.83
2019-04-06T17:11:59.257Z,11.15
2019-04-06T17:14:32.559Z,11.45
2019-04-06T17:17:18.775Z,11.22
2019-04-06T17:19:57.759Z,11.50
2019-04-06T17:22:28.149Z,11.55
2019-04-06T17:25:14.662Z,12.43
2019-04-06T17:27:47.830Z,14.15
2019-04-06T17:30:24.121Z,11.75
2019-04-06T17:33:03.056Z,10.90
2019-04-06T17:35:33.471Z,11.18
2019-04-06T17:38:06.454Z,11.48
2019-04-06T17:40:36.700Z,12.82
2019-04-06T17:43:15.785Z,13.62
2019-04-06T17:45:48.906Z,14.78
2019-04-06T17:48:21.648Z,14.55
2019-04-06T17:50:57.368Z,15.30
2019-04-06T17:53:39.046Z,18.65
2019-04-06T17:56:12.027Z,19.75
2019-04-06T17:58:58.267Z,16.40
2019-04-06T18:01:34.373Z,13.72
2019-04-06T18:04:19.482Z,17.62
2019-04-06T18:06:52.910Z,34.98
2019-04-06T18:09:31.888Z,14.18
2019-04-06T18:12:20.345Z,13.95
2019-04-06T18:14:48.888Z,15.05
2019-04-06T18:17:17.633Z,14.93
2019-04-06T18:19:46.502Z,15.65
2019-04-06T18:22:15.166Z,15.90
2019-04-06T18:24:43.761Z,17.35
2019-04-06T18:27:12.319Z,17.02
2019-04-06T18:29:41.071Z,18.57
2019-04-06T18:32:11.226Z,21.87
2019-04-06T18:34:42.631Z,24.25
2019-04-06T18:37:21.615Z,22.32
2019-04-06T18:39:51.849Z,20.25
2019-04-06T18:42:20.838Z,19.87
2019-04-06T18:44:49.823Z,18.12
2019-04-06T18:47:18.368Z,21.62
2019-04-06T18:49:46.871Z,22.15
2019-04-06T18:52:15.418Z,24.70
2019-04-06T18:54:44.001Z,26.77
2019-04-06T18:57:12.717Z,25.48
2019-04-06T18:59:41.361Z,23.62
2019-04-06T19:02:09.927Z,23.35
2019-04-06T19:04:38.516Z,36.30
2019-04-06T19:07:07.358Z,29.50
2019-04-06T19:09:36.015Z,24.02
2019-04-06T19:12:04.642Z,23.07
2019-04-06T19:14:33.238Z,19.67
2019-04-06T19:17:01.819Z,17.37
2019-04-06T19:19:30.772Z,16.37
2019-04-06T19:21:59.387Z,17.15
2019-04-06T19:24:28.057Z,16.50
2019-04-06T19:26:56.635Z,16.32
2019-04-06T19:29:25.233Z,16.25
2019-04-06T19:31:53.785Z,15.08
2019-04-06T19:34:22.361Z,15.35
2019-04-06T19:36:50.980Z,15.23
2019-04-06T19:39:19.780Z,15.30
2019-04-06T19:41:48.354Z,15.83
2019-04-06T19:44:16.874Z,14.75
2019-04-06T19:46:45.445Z,15.00
2019-04-06T19:49:14.244Z,14.55
2019-04-06T19:51:43.022Z,15.05
2019-04-06T19:54:11.977Z,14.85
2019-04-06T19:56:40.788Z,14.55
2019-04-06T19:59:12.567Z,15.23
2019-04-06T20:01:40.121Z,15.03
2019-04-06T20:04:08.699Z,14.93
2019-04-06T20:06:37.388Z,14.23
2019-04-06T20:09:07.696Z,15.15
2019-04-06T20:11:36.374Z,14.87
2019-04-06T20:14:05.220Z,15.18
2019-04-06T20:16:34.067Z,15.08
2019-04-06T20:19:02.650Z,15.18
2019-04-06T20:21:31.219Z,14.98
2019-04-06T20:24:00.552Z,14.78
2019-04-06T20:26:31.576Z,14.30
2019-04-06T20:28:59.404Z,13.83
2019-04-06T20:31:28.857Z,14.33
2019-04-06T20:33:57.510Z,14.58
2019-04-06T20:36:26.233Z,15.48
2019-04-06T20:38:54.922Z,14.80
2019-04-06T20:41:23.495Z,14.55
2019-04-06T20:43:52.079Z,14.80
2019-04-06T20:46:20.709Z,15.40
2019-04-06T20:48:49.289Z,14.70
2019-04-06T20:51:18.017Z,14.13
2019-04-06T20:53:46.534Z,13.70
2019-04-06T20:56:15.077Z,14.13
2019-04-06T20:58:44.058Z,14.07
2019-04-06T21:01:13.006Z,13.30
2019-04-06T21:03:41.618Z,14.18
2019-04-06T21:06:10.186Z,14.58
2019-04-06T21:08:39.078Z,13.72
2019-04-06T21:11:08.313Z,14.30
2019-04-06T21:13:36.874Z,14.58
2019-04-06T21:16:05.759Z,14.28
2019-04-06T21:18:34.299Z,14.68
2019-04-06T21:21:03.017Z,16.02
2019-04-06T21:23:32.062Z,16.23
2019-04-06T21:26:00.749Z,15.80
2019-04-06T21:28:29.896Z,16.45
2019-04-06T21:30:58.656Z,15.78
2019-04-06T21:33:27.570Z,16.52
2019-04-06T21:35:56.155Z,15.50
2019-04-06T21:38:25.138Z,15.68
2019-04-06T21:40:53.705Z,15.38
2019-04-06T21:43:22.452Z,15.05
2019-04-06T21:45:51.155Z,15.78
2019-04-06T21:48:19.744Z,15.75
2019-04-06T21:50:48.271Z,15.70
2019-04-06T21:53:17.273Z,14.50
2019-04-06T21:55:45.974Z,13.75
2019-04-06T21:58:14.502Z,15.20
2019-04-06T22:00:44.897Z,14.40
2019-04-06T22:03:13.904Z,14.07
2019-04-06T22:05:42.489Z,14.05
2019-04-06T22:08:11.039Z,14.60
2019-04-06T22:10:39.618Z,14.30
2019-04-06T22:13:08.365Z,13.78
2019-04-06T22:15:37.179Z,13.70
2019-04-06T22:18:06.187Z,13.58
2019-04-06T22:20:35.534Z,13.53
2019-04-06T22:23:04.194Z,13.88
2019-04-06T22:25:33.442Z,12.88
2019-04-06T22:28:02.045Z,12.85
2019-04-06T22:30:30.666Z,12.85
2019-04-06T22:32:59.229Z,12.05
2019-04-06T22:35:28.367Z,12.70
2019-04-06T22:37:56.973Z,12.40
2019-04-06T22:40:25.644Z,12.30
2019-04-06T22:42:54.150Z,11.53
2019-04-06T22:45:24.409Z,12.80
2019-04-06T22:47:53.230Z,10.70
2019-04-06T22:50:22.065Z,11.03
2019-04-06T22:52:50.627Z,11.97
2019-04-06T22:55:19.303Z,11.85
2019-04-06T22:57:47.874Z,12.33
2019-04-06T23:00:27.505Z,10.70
2019-04-06T23:02:57.670Z,10.35
2019-04-06T23:05:27.920Z,10.53
2019-04-06T23:07:56.476Z,9.98
2019-04-06T23:10:25.085Z,10.18
2019-04-06T23:12:54.126Z,10.75
2019-04-06T23:15:23.266Z,10.98
2019-04-06T23:17:52.099Z,10.40
2019-04-06T23:20:21.772Z,9.78
2019-04-06T23:22:50.329Z,10.20
2019-04-06T23:25:18.915Z,10.95
2019-04-06T23:27:47.841Z,10.35
2019-04-06T23:30:16.910Z,8.80
2019-04-06T23:32:45.589Z,9.83
2019-04-06T23:35:14.194Z,9.83
2019-04-06T23:37:42.674Z,9.23
2019-04-06T23:40:11.297Z,8.78
2019-04-06T23:42:40.404Z,9.30
2019-04-06T23:45:09.176Z,8.70
2019-04-06T23:47:37.756Z,8.00
2019-04-06T23:50:07.604Z,8.28
2019-04-06T23:52:36.490Z,8.55
2019-04-06T23:55:08.350Z,8.83
2019-04-06T23:57:37.245Z,8.63
